createdAt,value
2023-05-25T00:00:08.894Z,0.67
2023-05-25T00:01:08.929Z,0.66
2023-05-25T00:02:09.003Z,0.66
2023-05-25T00:03:08.987Z,0.66
2023-05-25T00:04:09.111Z,0.66
2023-05-25T00:05:08.993Z,0.67
2023-05-25T00:06:08.933Z,0.66
2023-05-25T00:07:08.961Z,0.66
2023-05-25T00:08:09.070Z,0.66
2023-05-25T00:09:09.033Z,0.65
2023-05-25T00:10:09.056Z,0.64
2023-05-25T00:11:09.061Z,0.65
2023-05-25T00:12:09.053Z,0.64
2023-05-25T00:13:09.078Z,0.64
2023-05-25T00:14:09.067Z,0.64
2023-05-25T00:15:09.076Z,0.64
2023-05-25T00:16:09.081Z,0.66
2023-05-25T00:17:09.129Z,0.64
2023-05-25T00:18:09.187Z,0.64
2023-05-25T00:19:09.100Z,0.65
2023-05-25T00:20:09.092Z,0.64
2023-05-25T00:21:09.116Z,0.65
2023-05-25T00:22:09.143Z,0.63
2023-05-25T00:23:09.135Z,0.64
2023-05-25T00:24:09.167Z,0.64
2023-05-25T00:25:09.191Z,0.64
2023-05-25T00:26:09.196Z,0.64
2023-05-25T00:27:09.211Z,0.64
2023-05-25T00:28:09.224Z,0.64
2023-05-25T00:29:09.199Z,0.65
2023-05-25T00:30:09.286Z,0.64
2023-05-25T00:31:09.346Z,0.64
2023-05-25T00:32:09.285Z,0.64
2023-05-25T00:33:09.369Z,0.64
2023-05-25T00:34:09.360Z,0.64
2023-05-25T00:35:09.325Z,0.64
2023-05-25T00:36:09.267Z,0.64
2023-05-25T00:37:09.326Z,0.64
2023-05-25T00:38:09.341Z,0.63
2023-05-25T00:39:09.380Z,0.63
2023-05-25T00:40:09.393Z,0.64
2023-05-25T00:41:09.418Z,0.63
2023-05-25T00:42:09.486Z,0.62
2023-05-25T00:43:09.596Z,0.62
2023-05-25T00:44:09.401Z,0.63
2023-05-25T00:45:09.499Z,0.62
2023-05-25T00:46:09.601Z,0.62
2023-05-25T00:47:09.498Z,0.62
2023-05-25T00:48:09.627Z,0.63
2023-05-25T00:49:09.480Z,0.62
2023-05-25T00:50:09.534Z,0.61
2023-05-25T00:51:09.487Z,0.62
2023-05-25T00:52:09.548Z,0.62
2023-05-25T00:53:09.586Z,0.61
2023-05-25T00:54:09.581Z,0.62
2023-05-25T00:55:09.597Z,0.62
2023-05-25T00:56:09.592Z,0.61
2023-05-25T00:57:09.612Z,0.61
2023-05-25T00:58:09.675Z,0.62
2023-05-25T00:59:09.649Z,0.61
2023-05-25T01:00:09.700Z,0.61
2023-05-25T01:01:09.652Z,0.61
2023-05-25T01:02:09.805Z,0.61
2023-05-25T01:03:11.057Z,0.60
2023-05-25T01:04:09.889Z,0.61
2023-05-25T01:05:09.764Z,0.61
2023-05-25T01:06:09.843Z,0.60
2023-05-25T01:07:09.796Z,0.60
2023-05-25T01:08:09.846Z,0.60
2023-05-25T01:09:09.833Z,0.61
2023-05-25T01:10:09.872Z,0.60
2023-05-25T01:11:09.878Z,0.60
2023-05-25T01:12:09.871Z,0.60
2023-05-25T01:13:09.891Z,0.60
2023-05-25T01:14:09.941Z,0.61
2023-05-25T01:15:09.949Z,0.59
2023-05-25T01:16:10.011Z,0.59
2023-05-25T01:17:09.955Z,0.59
2023-05-25T01:18:10.029Z,0.60
2023-05-25T01:19:10.027Z,0.59
2023-05-25T01:20:11.798Z,0.59
2023-05-25T01:21:10.044Z,0.60
2023-05-25T01:22:10.056Z,0.58
2023-05-25T01:23:10.099Z,0.59
2023-05-25T01:24:10.071Z,0.59
2023-05-25T01:25:10.106Z,0.58
2023-05-25T01:26:10.113Z,0.58
2023-05-25T01:27:10.126Z,0.58
2023-05-25T01:28:10.229Z,0.58
2023-05-25T01:29:10.230Z,0.59
2023-05-25T01:30:10.204Z,0.58
2023-05-25T01:31:10.194Z,0.58
2023-05-25T01:32:10.353Z,0.58
2023-05-25T01:33:10.351Z,0.58
2023-05-25T01:34:10.268Z,0.59
2023-05-25T01:35:10.349Z,0.58
2023-05-25T01:36:10.348Z,0.59
2023-05-25T01:37:10.372Z,0.58
2023-05-25T01:38:10.377Z,0.57
2023-05-25T01:39:10.384Z,0.58
2023-05-25T01:40:10.442Z,0.57
2023-05-25T01:41:10.429Z,0.59
2023-05-25T01:42:10.437Z,0.57
2023-05-25T01:43:10.470Z,0.57
2023-05-25T01:44:10.464Z,0.58
2023-05-25T01:45:11.142Z,0.57
2023-05-25T01:46:10.549Z,0.57
2023-05-25T01:47:10.577Z,0.57
2023-05-25T01:48:10.596Z,0.57
2023-05-25T01:49:10.612Z,0.56
2023-05-25T01:50:10.615Z,0.56
2023-05-25T01:51:10.613Z,0.56
2023-05-25T01:52:10.683Z,0.57
2023-05-25T01:53:10.719Z,0.57
2023-05-25T01:54:10.714Z,0.57
2023-05-25T01:55:10.724Z,0.57
2023-05-25T01:56:10.750Z,0.56
2023-05-25T01:57:10.775Z,0.56
2023-05-25T01:58:10.816Z,0.57
2023-05-25T01:59:10.819Z,0.56
2023-05-25T02:00:10.855Z,0.56
2023-05-25T02:01:10.889Z,0.57
2023-05-25T02:02:10.913Z,0.56
2023-05-25T02:03:10.998Z,0.56
2023-05-25T02:04:10.973Z,0.56
2023-05-25T02:05:10.968Z,0.56
2023-05-25T02:06:10.991Z,0.56
2023-05-25T02:07:11.007Z,0.56
2023-05-25T02:08:11.111Z,0.55
2023-05-25T02:09:11.103Z,0.55
2023-05-25T02:10:11.120Z,0.55
2023-05-25T02:11:11.101Z,0.55
2023-05-25T02:12:11.129Z,0.55
2023-05-25T02:13:11.223Z,0.55
2023-05-25T02:14:11.188Z,0.55
2023-05-25T02:15:11.232Z,0.55
2023-05-25T02:16:11.297Z,0.55
2023-05-25T02:17:11.290Z,0.56
2023-05-25T02:18:11.368Z,0.55
2023-05-25T02:19:11.285Z,0.55
2023-05-25T02:20:11.430Z,0.54
2023-05-25T02:21:11.376Z,0.54
2023-05-25T02:22:11.394Z,0.55
2023-05-25T02:23:11.427Z,0.55
2023-05-25T02:24:11.452Z,0.55
2023-05-25T02:25:11.480Z,0.54
2023-05-25T02:26:11.471Z,0.55
2023-05-25T02:27:11.521Z,0.54
2023-05-25T02:28:11.640Z,0.55
2023-05-25T02:29:11.591Z,0.55
2023-05-25T02:30:11.618Z,0.53
2023-05-25T02:31:11.615Z,0.54
2023-05-25T02:32:11.659Z,0.54
2023-05-25T02:33:11.705Z,0.53
2023-05-25T02:34:11.729Z,0.54
2023-05-25T02:35:11.750Z,0.55
2023-05-25T02:36:11.803Z,0.54
2023-05-25T02:37:11.814Z,0.54
2023-05-25T02:38:11.879Z,0.53
2023-05-25T02:39:11.913Z,0.53
2023-05-25T02:40:11.886Z,0.55
2023-05-25T02:41:11.895Z,0.53
2023-05-25T02:42:11.959Z,0.53
2023-05-25T02:43:11.974Z,0.54
2023-05-25T02:44:11.994Z,0.54
2023-05-25T02:45:12.063Z,0.53
2023-05-25T02:46:12.111Z,0.53
2023-05-25T02:47:12.150Z,0.54
2023-05-25T02:48:12.138Z,0.53
2023-05-25T02:49:12.144Z,0.53
2023-05-25T02:50:12.161Z,0.52
2023-05-25T02:51:12.194Z,0.54
2023-05-25T02:52:12.242Z,0.54
2023-05-25T02:53:12.275Z,0.54
2023-05-25T02:54:12.324Z,0.53
2023-05-25T02:55:12.329Z,0.53
2023-05-25T02:56:12.393Z,0.53
2023-05-25T02:57:12.399Z,0.52
2023-05-25T02:58:12.452Z,0.53
2023-05-25T02:59:12.457Z,0.53
2023-05-25T03:00:12.476Z,0.53
2023-05-25T03:01:12.546Z,0.53
2023-05-25T03:02:12.509Z,0.53
2023-05-25T03:03:12.731Z,0.53
2023-05-25T03:04:12.602Z,0.52
2023-05-25T03:05:12.614Z,0.53
2023-05-25T03:06:12.665Z,0.52
2023-05-25T03:07:12.718Z,0.53
2023-05-25T03:08:12.774Z,0.52
2023-05-25T03:09:12.749Z,0.52
2023-05-25T03:10:12.803Z,0.53
2023-05-25T03:11:12.813Z,0.52
2023-05-25T03:12:12.829Z,0.52
2023-05-25T03:13:12.903Z,0.52
2023-05-25T03:14:12.895Z,0.52
2023-05-25T03:15:12.994Z,0.53
2023-05-25T03:16:13.027Z,0.53
2023-05-25T03:17:13.012Z,0.52
2023-05-25T03:18:13.046Z,0.52
2023-05-25T03:19:13.051Z,0.52
2023-05-25T03:20:13.180Z,0.52
2023-05-25T03:21:13.150Z,0.52
2023-05-25T03:22:13.208Z,0.52
2023-05-25T03:23:13.631Z,0.51
2023-05-25T03:24:13.268Z,0.50
2023-05-25T03:25:13.304Z,0.52
2023-05-25T03:26:13.313Z,0.52
2023-05-25T03:27:13.342Z,0.51
2023-05-25T03:28:13.384Z,0.52
2023-05-25T03:29:13.420Z,0.51
2023-05-25T03:30:13.426Z,0.51
2023-05-25T03:31:13.485Z,0.52
2023-05-25T03:32:13.610Z,0.51
2023-05-25T03:33:13.543Z,0.51
2023-05-25T03:34:13.583Z,0.50
2023-05-25T03:35:13.609Z,0.52
2023-05-25T03:36:13.649Z,0.51
2023-05-25T03:37:13.676Z,0.52
2023-05-25T03:38:14.124Z,0.51
2023-05-25T03:39:13.806Z,0.51
2023-05-25T03:40:13.823Z,0.50
2023-05-25T03:41:13.864Z,0.51
2023-05-25T03:42:13.901Z,0.51
2023-05-25T03:43:13.930Z,0.52
2023-05-25T03:44:13.976Z,0.51
2023-05-25T03:45:13.983Z,0.50
2023-05-25T03:46:14.068Z,0.50
2023-05-25T03:47:14.096Z,0.51
2023-05-25T03:48:14.137Z,0.52
2023-05-25T03:49:14.376Z,0.52
2023-05-25T03:50:14.185Z,0.50
2023-05-25T03:51:14.237Z,0.51
2023-05-25T03:52:14.264Z,0.51
2023-05-25T03:53:14.364Z,0.51
2023-05-25T03:54:14.391Z,0.51
2023-05-25T03:55:14.357Z,0.51
2023-05-25T03:56:14.405Z,0.51
2023-05-25T03:57:14.444Z,0.51
2023-05-25T03:58:14.475Z,0.51
2023-05-25T03:59:14.529Z,0.51
2023-05-25T04:00:14.570Z,0.52
2023-05-25T04:01:14.602Z,0.52
2023-05-25T04:02:14.695Z,0.51
2023-05-25T04:03:14.704Z,0.51
2023-05-25T04:04:14.717Z,0.50
2023-05-25T04:05:14.717Z,0.51
2023-05-25T04:06:14.802Z,0.52
2023-05-25T04:07:14.805Z,0.50
2023-05-25T04:08:14.908Z,0.52
2023-05-25T04:09:14.889Z,0.51
2023-05-25T04:10:14.896Z,0.51
2023-05-25T04:11:14.967Z,0.52
2023-05-25T04:12:15.014Z,0.51
2023-05-25T04:13:15.016Z,0.51
2023-05-25T04:14:15.086Z,0.50
2023-05-25T04:15:15.120Z,0.50
2023-05-25T04:16:15.211Z,0.51
2023-05-25T04:17:15.196Z,0.52
2023-05-25T04:18:15.263Z,0.51
2023-05-25T04:19:15.232Z,0.51
2023-05-25T04:20:15.333Z,0.51
2023-05-25T04:21:15.330Z,0.51
2023-05-25T04:22:15.368Z,0.52
2023-05-25T04:23:15.413Z,0.52
2023-05-25T04:24:15.458Z,0.51
2023-05-25T04:25:15.541Z,0.50
2023-05-25T04:26:15.522Z,0.51
2023-05-25T04:27:15.529Z,0.51
2023-05-25T04:28:15.586Z,0.51
2023-05-25T04:29:15.677Z,0.51
2023-05-25T04:30:15.690Z,0.52
2023-05-25T04:31:15.764Z,0.51
2023-05-25T04:32:15.778Z,0.51
2023-05-25T04:33:15.801Z,0.50
2023-05-25T04:34:15.817Z,0.51
2023-05-25T04:35:15.822Z,0.51
2023-05-25T04:36:15.819Z,0.51
2023-05-25T04:37:15.860Z,0.50
2023-05-25T04:38:15.981Z,0.51
2023-05-25T04:39:15.953Z,0.52
2023-05-25T04:40:15.983Z,0.51
2023-05-25T04:41:15.987Z,0.51
2023-05-25T04:42:16.067Z,0.51
2023-05-25T04:43:16.069Z,0.51
2023-05-25T04:44:16.117Z,0.51
2023-05-25T04:45:16.170Z,0.51
2023-05-25T04:46:16.193Z,0.51
2023-05-25T04:47:16.196Z,0.51
2023-05-25T04:48:16.237Z,0.51
2023-05-25T04:49:16.293Z,0.51
2023-05-25T04:50:16.304Z,0.51
2023-05-25T04:51:16.385Z,0.51
2023-05-25T04:52:16.401Z,0.51
2023-05-25T04:53:16.448Z,0.50
2023-05-25T04:54:16.505Z,0.51
2023-05-25T04:55:16.493Z,0.51
2023-05-25T04:56:16.521Z,0.51
2023-05-25T04:57:16.595Z,0.51
2023-05-25T04:58:16.608Z,0.52
2023-05-25T04:59:16.653Z,0.52
2023-05-25T05:00:16.701Z,0.51
2023-05-25T05:01:16.814Z,0.51
2023-05-25T05:02:16.836Z,0.51
2023-05-25T05:03:16.808Z,0.51
2023-05-25T05:04:16.827Z,0.52
2023-05-25T05:05:16.874Z,0.51
2023-05-25T05:06:16.945Z,0.51
2023-05-25T05:07:17.005Z,0.50
2023-05-25T05:08:16.998Z,0.50
2023-05-25T05:09:17.647Z,0.51
2023-05-25T05:10:17.076Z,0.51
2023-05-25T05:11:17.115Z,0.52
2023-05-25T05:12:17.135Z,0.51
2023-05-25T05:13:17.146Z,0.51
2023-05-25T05:14:17.209Z,0.52
2023-05-25T05:15:17.261Z,0.52
2023-05-25T05:16:17.443Z,0.51
2023-05-25T05:17:17.274Z,0.51
2023-05-25T05:18:17.342Z,0.52
2023-05-25T05:19:17.405Z,0.51
2023-05-25T05:20:17.415Z,0.51
2023-05-25T05:21:17.425Z,0.51
2023-05-25T05:22:17.458Z,0.51
2023-05-25T05:23:17.492Z,0.51
2023-05-25T05:24:17.529Z,0.51
2023-05-25T05:25:17.586Z,0.52
2023-05-25T05:26:17.602Z,0.51
2023-05-25T05:27:17.600Z,0.51
2023-05-25T05:28:17.697Z,0.52
2023-05-25T05:29:17.775Z,0.51
2023-05-25T05:30:17.719Z,0.50
2023-05-25T05:31:17.712Z,0.52
2023-05-25T05:32:17.741Z,0.51
2023-05-25T05:33:17.844Z,0.52
2023-05-25T05:34:17.828Z,0.51
2023-05-25T05:35:17.870Z,0.51
2023-05-25T05:36:17.845Z,0.51
2023-05-25T05:37:17.906Z,0.52
2023-05-25T05:38:17.942Z,0.51
2023-05-25T05:39:17.990Z,0.51
2023-05-25T05:40:17.958Z,0.51
2023-05-25T05:41:18.057Z,0.51
2023-05-25T05:42:18.068Z,0.51
2023-05-25T05:43:18.072Z,0.51
2023-05-25T05:44:18.166Z,0.52
2023-05-25T05:45:18.164Z,0.52
2023-05-25T05:46:18.251Z,0.51
2023-05-25T05:47:18.192Z,0.51
2023-05-25T05:48:18.250Z,0.51
2023-05-25T05:49:18.264Z,0.51
2023-05-25T05:50:18.299Z,0.50
2023-05-25T05:51:18.382Z,0.51
2023-05-25T05:52:18.398Z,0.51
2023-05-25T05:53:18.407Z,0.51
2023-05-25T05:54:18.674Z,0.51
2023-05-25T05:55:18.482Z,0.50
2023-05-25T05:56:18.488Z,0.50
2023-05-25T05:57:18.523Z,0.50
2023-05-25T05:58:18.524Z,0.52
2023-05-25T05:59:18.664Z,0.51
2023-05-25T06:00:18.656Z,0.51
2023-05-25T06:01:18.654Z,0.50
2023-05-25T06:02:18.731Z,0.50
2023-05-25T06:03:18.746Z,0.51
2023-05-25T06:04:18.714Z,0.51
2023-05-25T06:05:18.789Z,0.52
2023-05-25T06:06:18.830Z,0.51
2023-05-25T06:07:18.861Z,0.51
2023-05-25T06:08:18.881Z,0.52
2023-05-25T06:09:18.933Z,0.51
2023-05-25T06:10:18.914Z,0.51
2023-05-25T06:11:18.969Z,0.52
2023-05-25T06:12:19.068Z,0.51
2023-05-25T06:13:19.009Z,0.51
2023-05-25T06:14:19.073Z,0.52
2023-05-25T06:15:19.097Z,0.50
2023-05-25T06:16:19.208Z,0.51
2023-05-25T06:17:19.198Z,0.52
2023-05-25T06:18:19.173Z,0.51
2023-05-25T06:19:19.217Z,0.52
2023-05-25T06:20:19.378Z,0.51
2023-05-25T06:21:19.261Z,0.51
2023-05-25T06:22:19.358Z,0.51
2023-05-25T06:23:19.390Z,0.51
2023-05-25T06:24:19.428Z,0.51
2023-05-25T06:25:19.382Z,0.51
2023-05-25T06:26:19.499Z,0.52
2023-05-25T06:27:19.493Z,0.51
2023-05-25T06:28:19.483Z,0.51
2023-05-25T06:29:19.597Z,0.51
2023-05-25T06:30:19.570Z,0.50
2023-05-25T06:31:19.622Z,0.52
2023-05-25T06:32:19.697Z,0.51
2023-05-25T06:33:19.703Z,0.52
2023-05-25T06:34:19.657Z,0.51
2023-05-25T06:35:19.969Z,0.51
2023-05-25T06:36:19.736Z,0.51
2023-05-25T06:37:19.789Z,0.50
2023-05-25T06:38:19.841Z,0.51
2023-05-25T06:39:19.827Z,0.51
2023-05-25T06:40:19.871Z,0.51
2023-05-25T06:41:19.968Z,0.51
2023-05-25T06:42:19.963Z,0.51
2023-05-25T06:43:20.000Z,0.52
2023-05-25T06:44:20.033Z,0.51
2023-05-25T06:45:20.089Z,0.51
2023-05-25T06:46:20.161Z,0.50
2023-05-25T06:47:20.116Z,0.51
2023-05-25T06:48:20.163Z,0.52
2023-05-25T06:49:20.119Z,0.52
2023-05-25T06:50:20.166Z,0.52
2023-05-25T06:51:20.197Z,0.51
2023-05-25T06:52:20.245Z,0.50
2023-05-25T06:53:20.281Z,0.51
2023-05-25T06:54:20.311Z,0.52
2023-05-25T06:55:20.327Z,0.53
2023-05-25T06:56:20.369Z,0.52
2023-05-25T06:57:20.362Z,0.52
2023-05-25T06:58:20.385Z,0.54
2023-05-25T06:59:20.440Z,0.54
2023-05-25T07:00:20.462Z,0.53
2023-05-25T07:01:20.462Z,0.54
2023-05-25T07:02:20.524Z,0.53
2023-05-25T07:03:20.451Z,0.54
2023-05-25T07:04:20.481Z,0.53
2023-05-25T07:05:20.598Z,0.53
2023-05-25T07:06:20.532Z,0.53
2023-05-25T07:07:20.542Z,0.53
2023-05-25T07:08:20.602Z,0.52
2023-05-25T07:09:21.198Z,0.53
2023-05-25T07:10:20.597Z,0.53
2023-05-25T07:11:20.704Z,0.52
2023-05-25T07:12:20.693Z,0.52
2023-05-25T07:13:20.698Z,0.53
2023-05-25T07:14:20.708Z,0.52
2023-05-25T07:15:20.718Z,0.52
2023-05-25T07:16:20.822Z,0.52
2023-05-25T07:17:20.767Z,0.52
2023-05-25T07:18:20.763Z,0.52
2023-05-25T07:19:20.812Z,0.52
2023-05-25T07:20:20.895Z,0.52
2023-05-25T07:21:20.823Z,0.52
2023-05-25T07:22:20.854Z,0.51
2023-05-25T07:23:20.898Z,0.52
2023-05-25T07:24:20.882Z,0.51
2023-05-25T07:25:20.914Z,0.52
2023-05-25T07:26:20.924Z,0.52
2023-05-25T07:27:21.000Z,0.52
2023-05-25T07:28:20.961Z,0.51
2023-05-25T07:29:21.042Z,0.52
2023-05-25T07:30:21.015Z,0.51
2023-05-25T07:31:21.090Z,0.51
2023-05-25T07:32:21.162Z,0.51
2023-05-25T07:33:21.119Z,0.51
2023-05-25T07:34:21.152Z,0.52
2023-05-25T07:35:21.140Z,0.52
2023-05-25T07:36:21.178Z,0.52
2023-05-25T07:37:21.203Z,0.50
2023-05-25T07:38:21.213Z,0.52
2023-05-25T07:39:21.250Z,0.52
2023-05-25T07:40:21.293Z,0.51
2023-05-25T07:41:21.263Z,0.52
2023-05-25T07:42:21.271Z,0.51
2023-05-25T07:43:21.316Z,0.51
2023-05-25T07:44:21.726Z,0.51
2023-05-25T07:45:21.378Z,0.51
2023-05-25T07:46:21.381Z,0.50
2023-05-25T07:47:21.448Z,0.50
2023-05-25T07:48:21.433Z,0.52
2023-05-25T07:49:21.462Z,0.55
2023-05-25T07:50:21.482Z,0.57
2023-05-25T07:51:21.481Z,0.55
2023-05-25T07:52:21.447Z,0.54
2023-05-25T07:53:21.446Z,0.52
2023-05-25T07:54:21.454Z,0.51
2023-05-25T07:55:21.527Z,0.52
2023-05-25T07:56:21.521Z,0.52
2023-05-25T07:57:21.618Z,0.52
2023-05-25T07:58:21.658Z,0.52
2023-05-25T07:59:21.745Z,0.55
2023-05-25T08:00:21.828Z,0.55
2023-05-25T08:01:21.865Z,0.54
2023-05-25T08:02:21.950Z,0.54
2023-05-25T08:03:31.934Z,0.55
2023-05-25T08:04:23.271Z,0.55
2023-05-25T08:05:21.886Z,0.53
2023-05-25T08:06:21.883Z,0.53
2023-05-25T08:07:21.845Z,0.53
2023-05-25T08:08:21.850Z,0.53
2023-05-25T08:09:22.267Z,0.52
2023-05-25T08:10:21.857Z,0.52
2023-05-25T08:11:21.836Z,0.52
2023-05-25T08:12:38.455Z,0.53
2023-05-25T08:13:22.794Z,0.53
2023-05-25T08:14:21.838Z,0.53
2023-05-25T08:15:21.841Z,0.53
2023-05-25T08:16:21.842Z,0.53
2023-05-25T08:17:21.860Z,0.52
2023-05-25T08:18:21.763Z,0.52
2023-05-25T08:19:21.762Z,0.52
2023-05-25T08:20:21.908Z,0.52
2023-05-25T08:21:21.737Z,0.52
2023-05-25T08:22:22.763Z,0.52
2023-05-25T08:23:21.716Z,0.52
2023-05-25T08:24:21.752Z,0.52
2023-05-25T08:25:21.707Z,0.53
2023-05-25T08:27:22.699Z,0.52
2023-05-25T08:28:21.681Z,0.53
2023-05-25T08:29:21.686Z,0.53
2023-05-25T08:30:21.655Z,0.53
2023-05-25T08:31:21.723Z,0.54
2023-05-25T08:32:21.708Z,0.54
2023-05-25T08:33:25.168Z,0.54
2023-05-25T08:34:21.693Z,0.54
2023-05-25T08:35:21.632Z,0.54
2023-05-25T08:36:21.620Z,0.54
2023-05-25T08:37:21.606Z,0.55
2023-05-25T08:38:21.636Z,0.55
2023-05-25T08:39:21.653Z,0.55
2023-05-25T08:40:21.625Z,0.56
2023-05-25T08:41:21.612Z,0.56
2023-05-25T08:42:21.649Z,0.55
2023-05-25T08:43:21.621Z,0.55
2023-05-25T08:44:21.755Z,0.57
2023-05-25T08:45:33.406Z,0.57
2023-05-25T08:46:22.585Z,0.57
2023-05-25T08:47:21.546Z,0.58
2023-05-25T08:48:35.455Z,0.58
2023-05-25T08:49:22.599Z,0.57
2023-05-25T08:50:21.580Z,0.58
2023-05-25T08:51:21.557Z,0.58
2023-05-25T08:52:21.557Z,0.59
2023-05-25T08:53:21.565Z,0.60
2023-05-25T08:54:21.513Z,0.62
2023-05-25T08:55:21.517Z,0.62
2023-05-25T08:56:21.536Z,0.63
2023-05-25T08:57:21.591Z,0.62
2023-05-25T08:58:21.633Z,0.63
2023-05-25T08:59:21.710Z,0.62
2023-05-25T09:00:21.723Z,0.60
2023-05-25T09:01:21.851Z,0.58
2023-05-25T09:02:21.938Z,0.57
2023-05-25T09:03:22.003Z,0.55
2023-05-25T09:04:21.990Z,0.51
2023-05-25T09:05:21.922Z,0.51
2023-05-25T09:06:21.933Z,0.51
2023-05-25T09:07:21.973Z,0.50
2023-05-25T09:08:22.011Z,0.50
2023-05-25T09:09:22.014Z,0.50
2023-05-25T09:10:21.985Z,0.51
2023-05-25T09:11:34.776Z,0.51
2023-05-25T09:12:22.986Z,0.51
2023-05-25T09:13:23.074Z,0.51
2023-05-25T09:14:21.953Z,0.50
2023-05-25T09:15:21.985Z,0.50
2023-05-25T09:16:22.027Z,0.50
2023-05-25T09:17:21.943Z,0.51
2023-05-25T09:18:21.981Z,0.51
2023-05-25T09:19:21.913Z,0.51
2023-05-25T09:20:22.036Z,0.52
2023-05-25T09:21:21.944Z,0.52
2023-05-25T09:22:21.918Z,0.53
2023-05-25T09:23:21.910Z,0.53
2023-05-25T09:24:21.917Z,0.53
2023-05-25T09:25:21.898Z,0.54
2023-05-25T09:26:21.966Z,0.54
2023-05-25T09:27:22.014Z,0.54
2023-05-25T09:28:26.207Z,0.54
2023-05-25T09:29:23.085Z,0.54
2023-05-25T09:30:22.013Z,0.54
2023-05-25T09:31:22.037Z,0.55
2023-05-25T09:32:22.037Z,0.55
2023-05-25T09:33:22.034Z,0.55
2023-05-25T09:34:21.996Z,0.56
2023-05-25T09:35:22.005Z,0.55
2023-05-25T09:36:22.181Z,0.56
2023-05-25T09:37:22.201Z,0.57
2023-05-25T09:38:22.536Z,0.56
2023-05-25T09:39:22.258Z,0.58
2023-05-25T09:40:22.234Z,0.57
2023-05-25T09:41:22.244Z,0.56
2023-05-25T09:42:22.318Z,0.57
2023-05-25T09:43:39.751Z,0.57
2023-05-25T09:44:23.369Z,0.57
2023-05-25T09:45:22.357Z,0.57
2023-05-25T09:46:22.355Z,0.57
2023-05-25T09:47:22.453Z,0.57
2023-05-25T09:48:22.336Z,0.57
2023-05-25T09:49:22.299Z,0.59
2023-05-25T09:50:22.325Z,0.60
2023-05-25T09:51:22.320Z,0.57
2023-05-25T09:52:22.279Z,0.58
2023-05-25T09:53:22.354Z,0.54
2023-05-25T09:54:22.394Z,0.59
2023-05-25T09:55:22.474Z,0.60
2023-05-25T09:56:22.483Z,0.60
2023-05-25T09:57:22.520Z,0.60
2023-05-25T09:58:22.593Z,0.67
2023-05-25T09:59:22.607Z,0.67
2023-05-25T10:00:22.654Z,0.66
2023-05-25T10:01:22.756Z,0.65
2023-05-25T10:02:22.684Z,0.65
2023-05-25T10:03:22.751Z,0.64
2023-05-25T10:04:22.807Z,0.65
2023-05-25T10:05:22.757Z,0.63
2023-05-25T10:06:22.781Z,0.65
2023-05-25T10:07:22.762Z,0.66
2023-05-25T10:08:22.773Z,0.69
2023-05-25T10:09:22.806Z,0.69
2023-05-25T10:10:22.798Z,0.71
2023-05-25T10:11:22.804Z,0.71
2023-05-25T10:12:22.763Z,0.72
2023-05-25T10:13:22.854Z,0.69
2023-05-25T10:14:23.300Z,0.70
2023-05-25T10:15:22.848Z,0.70
2023-05-25T10:16:23.008Z,0.72
2023-05-25T10:17:23.009Z,0.70
2023-05-25T10:18:23.054Z,0.70
2023-05-25T10:19:23.121Z,0.72
2023-05-25T10:20:23.245Z,0.69
2023-05-25T10:21:23.206Z,0.69
2023-05-25T10:22:23.310Z,0.71
2023-05-25T10:23:23.358Z,0.74
2023-05-25T10:24:23.430Z,0.71
2023-05-25T10:25:23.452Z,0.73
2023-05-25T10:26:23.539Z,0.75
2023-05-25T10:27:27.288Z,0.77
2023-05-25T10:28:23.534Z,0.77
2023-05-25T10:29:23.548Z,0.75
2023-05-25T10:30:23.532Z,0.74
2023-05-25T10:31:23.556Z,0.71
2023-05-25T10:32:23.603Z,0.71
2023-05-25T10:33:23.502Z,0.70
2023-05-25T10:34:23.504Z,0.71
2023-05-25T10:35:23.504Z,0.77
2023-05-25T10:36:23.497Z,0.75
2023-05-25T10:37:23.470Z,0.74
2023-05-25T10:38:23.460Z,0.71
2023-05-25T10:39:23.491Z,0.72
2023-05-25T10:40:23.452Z,0.78
2023-05-25T10:41:23.449Z,0.75
2023-05-25T10:42:23.427Z,0.76
2023-05-25T10:43:23.442Z,0.78
2023-05-25T10:44:23.461Z,0.83
2023-05-25T10:45:23.431Z,0.66
2023-05-25T10:46:23.451Z,0.69
2023-05-25T10:47:23.546Z,0.74
2023-05-25T10:48:23.623Z,0.74
2023-05-25T10:49:23.801Z,0.73
2023-05-25T10:50:23.408Z,0.74
2023-05-25T10:51:23.383Z,0.79
2023-05-25T10:52:23.367Z,0.72
2023-05-25T10:53:23.340Z,0.65
2023-05-25T10:54:23.376Z,0.70
2023-05-25T10:55:23.394Z,0.71
2023-05-25T10:56:23.342Z,0.66
2023-05-25T10:57:23.343Z,0.61
2023-05-25T10:58:23.374Z,0.69
2023-05-25T10:59:23.350Z,0.66
2023-05-25T11:00:23.363Z,0.64
2023-05-25T11:01:23.392Z,0.64
2023-05-25T11:02:23.612Z,0.67
2023-05-25T11:03:23.345Z,0.65
2023-05-25T11:04:23.314Z,0.67
2023-05-25T11:05:23.284Z,0.70
2023-05-25T11:06:23.302Z,0.68
2023-05-25T11:07:23.268Z,0.66
2023-05-25T11:08:23.256Z,0.69
2023-05-25T11:09:23.273Z,0.68
2023-05-25T11:10:23.248Z,0.59
2023-05-25T11:11:23.245Z,0.65
2023-05-25T11:12:23.230Z,0.68
2023-05-25T11:13:23.230Z,0.69
2023-05-25T11:14:23.216Z,0.69
2023-05-25T11:15:23.226Z,0.65
2023-05-25T11:16:23.326Z,0.68
2023-05-25T11:17:23.262Z,0.67
2023-05-25T11:18:23.223Z,0.67
2023-05-25T11:19:23.258Z,0.68
2023-05-25T11:20:23.334Z,0.67
2023-05-25T11:21:23.272Z,0.67
2023-05-25T11:22:23.279Z,0.70
2023-05-25T11:23:23.289Z,0.69
2023-05-25T11:24:23.292Z,0.68
2023-05-25T11:25:23.250Z,0.70
2023-05-25T11:26:23.237Z,0.71
2023-05-25T11:27:23.226Z,0.70
2023-05-25T11:28:23.248Z,0.72
2023-05-25T11:29:23.258Z,0.72
2023-05-25T11:30:23.238Z,0.71
2023-05-25T11:31:23.334Z,0.69
2023-05-25T11:32:23.300Z,0.68
2023-05-25T11:33:23.234Z,0.66
2023-05-25T11:34:23.296Z,0.71
2023-05-25T11:35:23.256Z,0.69
2023-05-25T11:36:23.312Z,0.72
2023-05-25T11:37:23.331Z,0.76
2023-05-25T11:38:23.309Z,0.73
2023-05-25T11:39:23.442Z,0.73
2023-05-25T11:40:23.314Z,0.71
2023-05-25T11:41:23.337Z,0.70
2023-05-25T11:42:23.342Z,0.71
2023-05-25T11:43:23.349Z,0.69
2023-05-25T11:44:23.347Z,0.69
2023-05-25T11:45:23.383Z,0.67
2023-05-25T11:46:23.461Z,0.69
2023-05-25T11:47:23.733Z,0.67
2023-05-25T11:48:23.454Z,0.67
2023-05-25T11:49:23.828Z,0.67
2023-05-25T11:50:23.423Z,0.64
2023-05-25T11:51:23.477Z,0.65
2023-05-25T11:52:23.526Z,0.64
2023-05-25T11:53:23.520Z,0.63
2023-05-25T11:54:23.598Z,0.62
2023-05-25T11:55:23.651Z,0.62
2023-05-25T11:56:34.217Z,0.61
2023-05-25T11:57:24.999Z,0.61
2023-05-25T11:58:23.667Z,0.61
2023-05-25T11:59:24.632Z,0.61
2023-05-25T12:00:23.662Z,0.60
2023-05-25T12:01:23.647Z,0.59
2023-05-25T12:02:23.725Z,0.58
2023-05-25T12:03:23.728Z,0.59
2023-05-25T12:04:24.438Z,0.61
2023-05-25T12:05:23.732Z,0.57
2023-05-25T12:06:23.723Z,0.58
2023-05-25T12:07:23.753Z,0.57
2023-05-25T12:08:23.824Z,0.57
2023-05-25T12:09:23.878Z,0.56
2023-05-25T12:10:23.914Z,0.55
2023-05-25T12:11:23.967Z,0.55
2023-05-25T12:12:23.964Z,0.54
2023-05-25T12:13:24.058Z,0.53
2023-05-25T12:14:24.015Z,0.54
2023-05-25T12:15:24.060Z,0.54
2023-05-25T12:16:24.039Z,0.53
2023-05-25T12:17:24.037Z,0.54
2023-05-25T12:18:24.019Z,0.54
2023-05-25T12:19:24.052Z,0.53
2023-05-25T12:20:24.037Z,0.53
2023-05-25T12:21:24.015Z,0.53
2023-05-25T12:22:24.033Z,0.53
2023-05-25T12:23:23.985Z,0.51
2023-05-25T12:24:25.080Z,0.50
2023-05-25T12:25:24.114Z,0.54
2023-05-25T12:26:24.020Z,0.54
2023-05-25T12:27:24.019Z,0.53
2023-05-25T12:28:24.025Z,0.51
2023-05-25T12:29:24.037Z,0.53
2023-05-25T12:30:24.029Z,0.51
2023-05-25T12:31:24.182Z,0.53
2023-05-25T12:32:24.115Z,0.54
2023-05-25T12:33:24.069Z,0.53
2023-05-25T12:34:24.112Z,0.51
2023-05-25T12:35:24.114Z,0.51
2023-05-25T12:36:24.260Z,0.52
2023-05-25T12:37:24.124Z,0.52
2023-05-25T12:38:24.154Z,0.52
2023-05-25T12:39:24.666Z,0.52
2023-05-25T12:40:24.165Z,0.52
2023-05-25T12:41:24.224Z,0.52
2023-05-25T12:42:24.237Z,0.52
2023-05-25T12:43:24.270Z,0.53
2023-05-25T12:44:24.362Z,0.53
2023-05-25T12:45:24.343Z,0.53
2023-05-25T12:46:24.441Z,0.52
2023-05-25T12:47:24.369Z,0.52
2023-05-25T12:48:24.476Z,0.54
2023-05-25T12:49:24.437Z,0.53
2023-05-25T12:50:24.503Z,0.52
2023-05-25T12:51:24.492Z,0.52
2023-05-25T12:52:24.497Z,0.53
2023-05-25T12:53:24.531Z,0.53
2023-05-25T12:54:24.559Z,0.51
2023-05-25T12:55:24.631Z,0.53
2023-05-25T12:56:24.665Z,0.53
2023-05-25T12:57:24.690Z,0.52
2023-05-25T12:58:24.757Z,0.53
2023-05-25T12:59:24.753Z,0.52
2023-05-25T13:00:24.870Z,0.52
2023-05-25T13:01:31.895Z,0.51
2023-05-25T13:02:24.850Z,0.51
2023-05-25T13:03:24.861Z,0.51
2023-05-25T13:04:24.823Z,0.51
2023-05-25T13:05:24.923Z,0.52
2023-05-25T13:06:24.855Z,0.50
2023-05-25T13:07:24.818Z,0.51
2023-05-25T13:08:24.844Z,0.52
2023-05-25T13:09:24.800Z,0.51
2023-05-25T13:10:24.954Z,0.51
2023-05-25T13:11:24.784Z,0.50
2023-05-25T13:12:24.746Z,0.50
2023-05-25T13:13:24.770Z,0.51
2023-05-25T13:14:24.816Z,0.51
2023-05-25T13:15:24.733Z,0.51
2023-05-25T13:16:24.880Z,0.51
2023-05-25T13:17:25.426Z,0.50
2023-05-25T13:18:24.767Z,0.51
2023-05-25T13:19:24.771Z,0.51